sensor_id;sensor_type;location;lat;lon;timestamp;temperature;humidity
17154;DHT22;8692;52.164;7.558;2023-02-01T00:00:12;4.80;99.90
17154;DHT22;8692;52.164;7.558;2023-02-01T00:02:40;4.80;99.90
17154;DHT22;8692;52.164;7.558;2023-02-01T00:05:10;4.80;99.90
17154;DHT22;8692;52.164;7.558;2023-02-01T00:07:38;4.80;99.90
17154;DHT22;8692;52.164;7.558;2023-02-01T00:10:08;4.80;99.90
17154;DHT22;8692;52.164;7.558;2023-02-01T00:12:37;4.80;99.90
17154;DHT22;8692;52.164;7.558;2023-02-01T00:15:06;4.80;99.90
17154;DHT22;8692;52.164;7.558;2023-02-01T00:17:35;4.80;99.90
17154;DHT22;8692;52.164;7.558;2023-02-01T00:20:04;4.80;99.90
17154;DHT22;8692;52.164;7.558;2023-02-01T00:22:32;4.90;99.90
17154;DHT22;8692;52.164;7.558;2023-02-01T00:25:00;4.80;99.90
17154;DHT22;8692;52.164;7.558;2023-02-01T00:27:29;4.80;99.90
17154;DHT22;8692;52.164;7.558;2023-02-01T00:29:58;4.90;99.90
17154;DHT22;8692;52.164;7.558;2023-02-01T00:32:26;4.80;99.90
17154;DHT22;8692;52.164;7.558;2023-02-01T00:34:54;4.80;99.90
17154;DHT22;8692;52.164;7.558;2023-02-01T00:37:25;4.80;99.90
17154;DHT22;8692;52.164;7.558;2023-02-01T00:39:53;4.80;99.90
17154;DHT22;8692;52.164;7.558;2023-02-01T00:42:24;4.80;99.90
17154;DHT22;8692;52.164;7.558;2023-02-01T00:44:55;4.80;99.90
17154;DHT22;8692;52.164;7.558;2023-02-01T00:47:27;4.80;99.90
17154;DHT22;8692;52.164;7.558;2023-02-01T00:49:59;4.80;99.90
17154;DHT22;8692;52.164;7.558;2023-02-01T00:52:30;4.80;99.90
17154;DHT22;8692;52.164;7.558;2023-02-01T00:55:00;4.80;99.90
17154;DHT22;8692;52.164;7.558;2023-02-01T00:57:29;4.80;99.90
17154;DHT22;8692;52.164;7.558;2023-02-01T00:59:59;4.80;99.90
17154;DHT22;8692;52.164;7.558;2023-02-01T01:02:32;4.90;99.90
17154;DHT22;8692;52.164;7.558;2023-02-01T01:05:00;4.80;99.90
17154;DHT22;8692;52.164;7.558;2023-02-01T01:07:31;4.80;99.90
17154;DHT22;8692;52.164;7.558;2023-02-01T01:09:59;4.90;99.90
17154;DHT22;8692;52.164;7.558;2023-02-01T01:12:27;4.90;99.90
17154;DHT22;8692;52.164;7.558;2023-02-01T01:14:56;4.90;99.90
17154;DHT22;8692;52.164;7.558;2023-02-01T01:17:24;4.90;99.90
17154;DHT22;8692;52.164;7.558;2023-02-01T01:19:53;4.90;99.90
17154;DHT22;8692;52.164;7.558;2023-02-01T01:22:25;4.90;99.90
17154;DHT22;8692;52.164;7.558;2023-02-01T01:24:53;5.00;99.90
17154;DHT22;8692;52.164;7.558;2023-02-01T01:27:21;5.00;99.90
17154;DHT22;8692;52.164;7.558;2023-02-01T01:29:51;5.10;99.90
17154;DHT22;8692;52.164;7.558;2023-02-01T01:32:19;5.10;99.90
17154;DHT22;8692;52.164;7.558;2023-02-01T01:34:48;5.10;99.90
17154;DHT22;8692;52.164;7.558;2023-02-01T01:37:18;5.10;99.90
17154;DHT22;8692;52.164;7.558;2023-02-01T01:39:48;5.10;99.90
17154;DHT22;8692;52.164;7.558;2023-02-01T01:42:16;5.20;99.90
17154;DHT22;8692;52.164;7.558;2023-02-01T01:45:00;5.20;99.90
17154;DHT22;8692;52.164;7.558;2023-02-01T01:47:36;5.20;99.90
17154;DHT22;8692;52.164;7.558;2023-02-01T01:50:08;5.20;99.90
17154;DHT22;8692;52.164;7.558;2023-02-01T01:52:39;5.20;99.90
17154;DHT22;8692;52.164;7.558;2023-02-01T01:55:11;5.20;99.90
17154;DHT22;8692;52.164;7.558;2023-02-01T01:57:43;5.20;99.90
17154;DHT22;8692;52.164;7.558;2023-02-01T02:00:17;5.30;99.90
17154;DHT22;8692;52.164;7.558;2023-02-01T02:02:49;5.30;99.90
17154;DHT22;8692;52.164;7.558;2023-02-01T02:05:20;5.30;99.90
17154;DHT22;8692;52.164;7.558;2023-02-01T02:07:53;5.30;99.90
17154;DHT22;8692;52.164;7.558;2023-02-01T02:10:24;5.30;99.90
17154;DHT22;8692;52.164;7.558;2023-02-01T02:13:16;5.30;99.90
17154;DHT22;8692;52.164;7.558;2023-02-01T02:15:56;5.30;99.90
17154;DHT22;8692;52.164;7.558;2023-02-01T02:18:32;5.30;99.90
17154;DHT22;8692;52.164;7.558;2023-02-01T02:21:15;5.30;99.90
17154;DHT22;8692;52.164;7.558;2023-02-01T02:24:11;5.30;99.90
17154;DHT22;8692;52.164;7.558;2023-02-01T02:27:19;5.30;99.90
17154;DHT22;8692;52.164;7.558;2023-02-01T02:30:18;5.30;99.90
17154;DHT22;8692;52.164;7.558;2023-02-01T02:36:16;5.30;99.90
17154;DHT22;8692;52.164;7.558;2023-02-01T02:38:54;5.30;99.90
17154;DHT22;8692;52.164;7.558;2023-02-01T02:41:31;5.30;99.90
17154;DHT22;8692;52.164;7.558;2023-02-01T02:44:23;5.20;99.90
17154;DHT22;8692;52.164;7.558;2023-02-01T02:47:17;5.20;99.90
17154;DHT22;8692;52.164;7.558;2023-02-01T02:50:10;5.20;99.90
17154;DHT22;8692;52.164;7.558;2023-02-01T02:53:05;5.20;99.90
17154;DHT22;8692;52.164;7.558;2023-02-01T02:55:54;5.20;99.90
17154;DHT22;8692;52.164;7.558;2023-02-01T02:58:41;5.20;99.90
17154;DHT22;8692;52.164;7.558;2023-02-01T03:01:28;5.20;99.90
17154;DHT22;8692;52.164;7.558;2023-02-01T03:04:15;5.30;99.90
17154;DHT22;8692;52.164;7.558;2023-02-01T03:06:48;5.20;99.90
17154;DHT22;8692;52.164;7.558;2023-02-01T03:09:22;5.20;99.90
17154;DHT22;8692;52.164;7.558;2023-02-01T03:11:58;5.20;99.90
17154;DHT22;8692;52.164;7.558;2023-02-01T03:14:49;5.20;99.90
17154;DHT22;8692;52.164;7.558;2023-02-01T03:17:22;5.20;99.90
17154;DHT22;8692;52.164;7.558;2023-02-01T03:19:58;5.20;99.90
17154;DHT22;8692;52.164;7.558;2023-02-01T03:22:29;5.20;99.90
17154;DHT22;8692;52.164;7.558;2023-02-01T03:25:07;5.20;99.90
17154;DHT22;8692;52.164;7.558;2023-02-01T03:27:40;5.20;99.90
17154;DHT22;8692;52.164;7.558;2023-02-01T03:30:15;5.20;99.90
17154;DHT22;8692;52.164;7.558;2023-02-01T03:32:48;5.20;99.90
17154;DHT22;8692;52.164;7.558;2023-02-01T03:35:35;5.10;99.90
17154;DHT22;8692;52.164;7.558;2023-02-01T03:38:13;5.20;99.90
17154;DHT22;8692;52.164;7.558;2023-02-01T03:40:52;5.20;99.90
17154;DHT22;8692;52.164;7.558;2023-02-01T03:43:22;5.20;99.90
17154;DHT22;8692;52.164;7.558;2023-02-01T03:45:56;5.20;99.90
17154;DHT22;8692;52.164;7.558;2023-02-01T03:48:27;5.20;99.90
17154;DHT22;8692;52.164;7.558;2023-02-01T03:51:00;5.10;99.90
17154;DHT22;8692;52.164;7.558;2023-02-01T03:53:31;5.20;99.90
17154;DHT22;8692;52.164;7.558;2023-02-01T03:56:03;5.20;99.90
17154;DHT22;8692;52.164;7.558;2023-02-01T03:58:31;5.20;99.90
17154;DHT22;8692;52.164;7.558;2023-02-01T04:01:00;5.30;99.90
17154;DHT22;8692;52.164;7.558;2023-02-01T04:03:31;5.30;99.90
17154;DHT22;8692;52.164;7.558;2023-02-01T04:06:00;5.30;99.90
17154;DHT22;8692;52.164;7.558;2023-02-01T04:08:28;5.30;99.90
17154;DHT22;8692;52.164;7.558;2023-02-01T04:10:56;5.30;99.90
17154;DHT22;8692;52.164;7.558;2023-02-01T04:13:26;5.30;99.90
17154;DHT22;8692;52.164;7.558;2023-02-01T04:15:54;5.30;99.90
17154;DHT22;8692;52.164;7.558;2023-02-01T04:18:22;5.30;99.90
17154;DHT22;8692;52.164;7.558;2023-02-01T04:20:50;5.40;99.90
17154;DHT22;8692;52.164;7.558;2023-02-01T04:23:20;5.40;99.90
17154;DHT22;8692;52.164;7.558;2023-02-01T04:25:49;5.40;99.90
17154;DHT22;8692;52.164;7.558;2023-02-01T04:28:19;5.40;99.90
17154;DHT22;8692;52.164;7.558;2023-02-01T04:30:51;5.40;99.90
17154;DHT22;8692;52.164;7.558;2023-02-01T04:33:20;5.40;99.90
17154;DHT22;8692;52.164;7.558;2023-02-01T04:35:51;5.40;99.90
17154;DHT22;8692;52.164;7.558;2023-02-01T04:38:21;5.40;99.90
17154;DHT22;8692;52.164;7.558;2023-02-01T04:40:49;5.40;99.90
17154;DHT22;8692;52.164;7.558;2023-02-01T04:43:20;5.40;99.90
17154;DHT22;8692;52.164;7.558;2023-02-01T04:45:51;5.30;99.90
17154;DHT22;8692;52.164;7.558;2023-02-01T04:48:23;5.30;99.90
17154;DHT22;8692;52.164;7.558;2023-02-01T04:50:51;5.30;99.90
17154;DHT22;8692;52.164;7.558;2023-02-01T04:53:19;5.40;99.90
17154;DHT22;8692;52.164;7.558;2023-02-01T04:55:48;5.40;99.90
17154;DHT22;8692;52.164;7.558;2023-02-01T04:58:16;5.40;99.90
17154;DHT22;8692;52.164;7.558;2023-02-01T05:00:45;5.40;99.90
17154;DHT22;8692;52.164;7.558;2023-02-01T05:03:16;5.40;99.90
17154;DHT22;8692;52.164;7.558;2023-02-01T05:05:46;5.40;99.90
17154;DHT22;8692;52.164;7.558;2023-02-01T05:08:14;5.40;99.90
17154;DHT22;8692;52.164;7.558;2023-02-01T05:10:44;5.40;99.90
17154;DHT22;8692;52.164;7.558;2023-02-01T05:13:12;5.30;99.90
17154;DHT22;8692;52.164;7.558;2023-02-01T05:16:00;5.40;99.90
17154;DHT22;8692;52.164;7.558;2023-02-01T05:18:33;5.40;99.90
17154;DHT22;8692;52.164;7.558;2023-02-01T05:21:01;5.40;99.90
17154;DHT22;8692;52.164;7.558;2023-02-01T05:23:32;5.40;99.90
17154;DHT22;8692;52.164;7.558;2023-02-01T05:26:20;5.40;99.90
17154;DHT22;8692;52.164;7.558;2023-02-01T05:28:48;5.40;99.90
17154;DHT22;8692;52.164;7.558;2023-02-01T05:31:18;5.40;99.90
17154;DHT22;8692;52.164;7.558;2023-02-01T05:33:48;5.40;99.90
17154;DHT22;8692;52.164;7.558;2023-02-01T05:36:16;5.40;99.90
17154;DHT22;8692;52.164;7.558;2023-02-01T05:38:45;5.40;99.90
17154;DHT22;8692;52.164;7.558;2023-02-01T05:41:13;5.40;99.90
17154;DHT22;8692;52.164;7.558;2023-02-01T05:43:41;5.40;99.90
17154;DHT22;8692;52.164;7.558;2023-02-01T05:46:10;5.40;99.90
17154;DHT22;8692;52.164;7.558;2023-02-01T05:48:39;5.40;99.90
17154;DHT22;8692;52.164;7.558;2023-02-01T05:51:09;5.40;99.90
17154;DHT22;8692;52.164;7.558;2023-02-01T05:53:40;5.40;99.90
17154;DHT22;8692;52.164;7.558;2023-02-01T05:56:10;5.40;99.90
17154;DHT22;8692;52.164;7.558;2023-02-01T05:58:38;5.40;99.90
17154;DHT22;8692;52.164;7.558;2023-02-01T06:01:07;5.40;99.90
17154;DHT22;8692;52.164;7.558;2023-02-01T06:03:35;5.40;99.90
17154;DHT22;8692;52.164;7.558;2023-02-01T06:06:05;5.50;99.90
17154;DHT22;8692;52.164;7.558;2023-02-01T06:08:35;5.50;99.90
17154;DHT22;8692;52.164;7.558;2023-02-01T06:11:04;5.50;99.90
17154;DHT22;8692;52.164;7.558;2023-02-01T06:13:33;5.50;99.90
17154;DHT22;8692;52.164;7.558;2023-02-01T06:16:02;5.40;99.90
17154;DHT22;8692;52.164;7.558;2023-02-01T06:18:32;5.50;99.90
17154;DHT22;8692;52.164;7.558;2023-02-01T06:21:00;5.50;99.90
17154;DHT22;8692;52.164;7.558;2023-02-01T06:23:31;5.50;99.90
17154;DHT22;8692;52.164;7.558;2023-02-01T06:26:02;5.50;99.90
17154;DHT22;8692;52.164;7.558;2023-02-01T06:28:32;5.50;99.90
17154;DHT22;8692;52.164;7.558;2023-02-01T06:31:03;5.60;99.90
17154;DHT22;8692;52.164;7.558;2023-02-01T06:33:36;5.50;99.90
17154;DHT22;8692;52.164;7.558;2023-02-01T06:36:06;5.50;99.90
17154;DHT22;8692;52.164;7.558;2023-02-01T06:38:35;5.60;99.90
17154;DHT22;8692;52.164;7.558;2023-02-01T06:41:05;5.60;99.90
17154;DHT22;8692;52.164;7.558;2023-02-01T06:43:33;5.60;99.90
17154;DHT22;8692;52.164;7.558;2023-02-01T06:46:06;5.60;99.90
17154;DHT22;8692;52.164;7.558;2023-02-01T06:48:35;5.60;99.90
17154;DHT22;8692;52.164;7.558;2023-02-01T06:51:03;5.60;99.90
17154;DHT22;8692;52.164;7.558;2023-02-01T06:53:34;5.70;99.90
17154;DHT22;8692;52.164;7.558;2023-02-01T06:56:03;5.70;99.90
17154;DHT22;8692;52.164;7.558;2023-02-01T06:58:34;5.70;99.90
17154;DHT22;8692;52.164;7.558;2023-02-01T07:01:07;5.70;99.90
17154;DHT22;8692;52.164;7.558;2023-02-01T07:03:38;5.70;99.90
17154;DHT22;8692;52.164;7.558;2023-02-01T07:06:07;5.70;99.90
17154;DHT22;8692;52.164;7.558;2023-02-01T07:08:37;5.70;99.90
17154;DHT22;8692;52.164;7.558;2023-02-01T07:11:06;5.70;99.90
17154;DHT22;8692;52.164;7.558;2023-02-01T07:13:37;5.70;99.90
17154;DHT22;8692;52.164;7.558;2023-02-01T07:16:07;5.70;99.90
17154;DHT22;8692;52.164;7.558;2023-02-01T07:18:37;5.80;99.90
17154;DHT22;8692;52.164;7.558;2023-02-01T07:21:05;5.80;99.90
17154;DHT22;8692;52.164;7.558;2023-02-01T07:23:33;5.80;99.90
17154;DHT22;8692;52.164;7.558;2023-02-01T07:26:06;5.70;99.90
17154;DHT22;8692;52.164;7.558;2023-02-01T07:28:36;5.70;99.90
17154;DHT22;8692;52.164;7.558;2023-02-01T07:31:08;5.70;99.90
17154;DHT22;8692;52.164;7.558;2023-02-01T07:33:40;5.70;99.90
17154;DHT22;8692;52.164;7.558;2023-02-01T07:36:11;5.70;99.90
17154;DHT22;8692;52.164;7.558;2023-02-01T07:38:40;5.70;99.90
17154;DHT22;8692;52.164;7.558;2023-02-01T07:41:08;5.80;99.90
17154;DHT22;8692;52.164;7.558;2023-02-01T07:43:38;5.80;99.90
17154;DHT22;8692;52.164;7.558;2023-02-01T07:46:07;5.80;99.90
17154;DHT22;8692;52.164;7.558;2023-02-01T07:48:35;5.80;99.90
17154;DHT22;8692;52.164;7.558;2023-02-01T07:51:09;5.80;99.90
17154;DHT22;8692;52.164;7.558;2023-02-01T07:53:38;5.80;99.90
17154;DHT22;8692;52.164;7.558;2023-02-01T07:56:11;5.80;99.90
17154;DHT22;8692;52.164;7.558;2023-02-01T07:58:42;5.80;99.90
17154;DHT22;8692;52.164;7.558;2023-02-01T08:01:14;5.80;99.90
17154;DHT22;8692;52.164;7.558;2023-02-01T08:03:52;5.80;99.90
17154;DHT22;8692;52.164;7.558;2023-02-01T08:06:22;5.80;99.90
17154;DHT22;8692;52.164;7.558;2023-02-01T08:08:51;5.80;99.90
17154;DHT22;8692;52.164;7.558;2023-02-01T08:11:22;5.80;99.90
17154;DHT22;8692;52.164;7.558;2023-02-01T08:13:54;5.80;99.90
17154;DHT22;8692;52.164;7.558;2023-02-01T08:16:24;5.80;99.90
17154;DHT22;8692;52.164;7.558;2023-02-01T08:18:53;5.80;99.90
17154;DHT22;8692;52.164;7.558;2023-02-01T08:21:23;5.90;99.90
17154;DHT22;8692;52.164;7.558;2023-02-01T08:23:52;5.90;99.90
17154;DHT22;8692;52.164;7.558;2023-02-01T08:26:22;5.90;99.90
17154;DHT22;8692;52.164;7.558;2023-02-01T08:28:52;5.90;99.90
17154;DHT22;8692;52.164;7.558;2023-02-01T08:31:23;5.90;99.90
17154;DHT22;8692;52.164;7.558;2023-02-01T08:33:53;6.00;99.90
17154;DHT22;8692;52.164;7.558;2023-02-01T08:36:22;6.00;99.90
17154;DHT22;8692;52.164;7.558;2023-02-01T08:38:51;6.00;99.90
17154;DHT22;8692;52.164;7.558;2023-02-01T08:41:21;6.00;99.90
17154;DHT22;8692;52.164;7.558;2023-02-01T08:43:52;6.00;99.90
17154;DHT22;8692;52.164;7.558;2023-02-01T08:46:23;6.00;99.90
17154;DHT22;8692;52.164;7.558;2023-02-01T08:48:51;6.00;99.90
17154;DHT22;8692;52.164;7.558;2023-02-01T08:51:23;6.10;99.90
17154;DHT22;8692;52.164;7.558;2023-02-01T08:53:51;6.10;99.90
17154;DHT22;8692;52.164;7.558;2023-02-01T08:56:22;6.10;99.90
17154;DHT22;8692;52.164;7.558;2023-02-01T08:58:50;6.10;99.90
17154;DHT22;8692;52.164;7.558;2023-02-01T09:01:18;6.20;99.90
17154;DHT22;8692;52.164;7.558;2023-02-01T09:03:48;6.20;99.90
17154;DHT22;8692;52.164;7.558;2023-02-01T09:06:16;6.20;99.90
17154;DHT22;8692;52.164;7.558;2023-02-01T09:08:44;6.20;99.90
17154;DHT22;8692;52.164;7.558;2023-02-01T09:11:14;6.30;99.90
17154;DHT22;8692;52.164;7.558;2023-02-01T09:13:47;6.30;99.90
17154;DHT22;8692;52.164;7.558;2023-02-01T09:16:17;6.30;99.90
17154;DHT22;8692;52.164;7.558;2023-02-01T09:18:49;6.40;99.90
17154;DHT22;8692;52.164;7.558;2023-02-01T09:21:27;6.40;99.90
17154;DHT22;8692;52.164;7.558;2023-02-01T09:23:58;6.40;99.90
17154;DHT22;8692;52.164;7.558;2023-02-01T09:26:29;6.40;99.90
17154;DHT22;8692;52.164;7.558;2023-02-01T09:28:59;6.50;99.90
17154;DHT22;8692;52.164;7.558;2023-02-01T09:31:27;6.50;99.90
17154;DHT22;8692;52.164;7.558;2023-02-01T09:33:57;6.50;99.90
17154;DHT22;8692;52.164;7.558;2023-02-01T09:36:25;6.50;99.90
17154;DHT22;8692;52.164;7.558;2023-02-01T09:38:59;6.50;99.90
17154;DHT22;8692;52.164;7.558;2023-02-01T09:41:38;6.50;99.90
17154;DHT22;8692;52.164;7.558;2023-02-01T09:44:16;6.50;99.90
17154;DHT22;8692;52.164;7.558;2023-02-01T09:46:48;6.60;99.90
17154;DHT22;8692;52.164;7.558;2023-02-01T09:49:23;6.60;99.90
17154;DHT22;8692;52.164;7.558;2023-02-01T09:51:52;6.60;99.90
17154;DHT22;8692;52.164;7.558;2023-02-01T09:54:23;6.60;99.90
17154;DHT22;8692;52.164;7.558;2023-02-01T09:56:56;6.60;99.90
17154;DHT22;8692;52.164;7.558;2023-02-01T09:59:33;6.60;99.90
17154;DHT22;8692;52.164;7.558;2023-02-01T10:02:10;6.60;99.90
17154;DHT22;8692;52.164;7.558;2023-02-01T10:04:40;6.60;99.90
17154;DHT22;8692;52.164;7.558;2023-02-01T10:07:21;6.60;99.90
17154;DHT22;8692;52.164;7.558;2023-02-01T10:10:02;6.70;99.90
17154;DHT22;8692;52.164;7.558;2023-02-01T10:13:20;6.70;99.90
17154;DHT22;8692;52.164;7.558;2023-02-01T10:16:10;6.70;99.90
17154;DHT22;8692;52.164;7.558;2023-02-01T10:19:23;6.70;99.90
17154;DHT22;8692;52.164;7.558;2023-02-01T10:21:58;6.80;99.90
17154;DHT22;8692;52.164;7.558;2023-02-01T10:24:36;6.80;99.90
17154;DHT22;8692;52.164;7.558;2023-02-01T10:27:12;6.80;99.90
17154;DHT22;8692;52.164;7.558;2023-02-01T10:29:42;6.80;99.90
17154;DHT22;8692;52.164;7.558;2023-02-01T10:32:15;6.80;99.90
17154;DHT22;8692;52.164;7.558;2023-02-01T10:34:46;6.80;99.90
17154;DHT22;8692;52.164;7.558;2023-02-01T10:37:24;6.80;99.90
17154;DHT22;8692;52.164;7.558;2023-02-01T10:39:55;6.80;99.90
17154;DHT22;8692;52.164;7.558;2023-02-01T10:42:28;6.80;99.90
17154;DHT22;8692;52.164;7.558;2023-02-01T10:44:58;6.80;99.90
17154;DHT22;8692;52.164;7.558;2023-02-01T10:47:29;6.80;99.90
17154;DHT22;8692;52.164;7.558;2023-02-01T10:50:03;6.80;99.90
17154;DHT22;8692;52.164;7.558;2023-02-01T10:52:48;6.80;99.90
17154;DHT22;8692;52.164;7.558;2023-02-01T10:55:32;6.80;99.90
17154;DHT22;8692;52.164;7.558;2023-02-01T10:58:02;6.80;99.90
17154;DHT22;8692;52.164;7.558;2023-02-01T11:00:41;6.80;99.90
17154;DHT22;8692;52.164;7.558;2023-02-01T11:03:33;6.80;99.90
17154;DHT22;8692;52.164;7.558;2023-02-01T11:06:10;6.80;99.90
17154;DHT22;8692;52.164;7.558;2023-02-01T11:08:45;6.80;99.90
17154;DHT22;8692;52.164;7.558;2023-02-01T11:11:15;6.80;99.90
17154;DHT22;8692;52.164;7.558;2023-02-01T11:13:55;6.70;99.90
17154;DHT22;8692;52.164;7.558;2023-02-01T11:16:34;6.70;99.90
17154;DHT22;8692;52.164;7.558;2023-02-01T11:19:05;6.60;99.90
17154;DHT22;8692;52.164;7.558;2023-02-01T11:21:36;6.60;99.90
17154;DHT22;8692;52.164;7.558;2023-02-01T11:24:16;6.50;99.90
17154;DHT22;8692;52.164;7.558;2023-02-01T11:26:47;6.40;99.90
17154;DHT22;8692;52.164;7.558;2023-02-01T11:29:17;6.30;99.90
17154;DHT22;8692;52.164;7.558;2023-02-01T11:31:49;6.30;99.90
17154;DHT22;8692;52.164;7.558;2023-02-01T11:34:22;6.20;99.90
17154;DHT22;8692;52.164;7.558;2023-02-01T11:37:01;6.10;99.90
17154;DHT22;8692;52.164;7.558;2023-02-01T11:39:33;6.10;99.90
17154;DHT22;8692;52.164;7.558;2023-02-01T11:42:05;6.10;99.90
17154;DHT22;8692;52.164;7.558;2023-02-01T11:44:36;6.10;99.90
17154;DHT22;8692;52.164;7.558;2023-02-01T11:47:24;6.00;99.90
17154;DHT22;8692;52.164;7.558;2023-02-01T11:49:54;6.00;99.90
17154;DHT22;8692;52.164;7.558;2023-02-01T11:52:54;6.00;99.90
17154;DHT22;8692;52.164;7.558;2023-02-01T11:55:41;5.90;99.90
17154;DHT22;8692;52.164;7.558;2023-02-01T11:58:20;5.90;99.90
17154;DHT22;8692;52.164;7.558;2023-02-01T12:01:03;5.90;99.90
17154;DHT22;8692;52.164;7.558;2023-02-01T12:04:04;5.90;99.90
17154;DHT22;8692;52.164;7.558;2023-02-01T12:06:44;5.80;99.90
17154;DHT22;8692;52.164;7.558;2023-02-01T12:09:43;5.80;99.90
17154;DHT22;8692;52.164;7.558;2023-02-01T12:12:19;5.80;99.90
17154;DHT22;8692;52.164;7.558;2023-02-01T12:14:59;5.80;99.90
17154;DHT22;8692;52.164;7.558;2023-02-01T12:17:48;5.80;99.90
17154;DHT22;8692;52.164;7.558;2023-02-01T12:20:43;5.80;99.90
17154;DHT22;8692;52.164;7.558;2023-02-01T12:23:24;5.80;99.90
17154;DHT22;8692;52.164;7.558;2023-02-01T12:26:08;5.80;99.90
17154;DHT22;8692;52.164;7.558;2023-02-01T12:28:58;5.90;99.90
17154;DHT22;8692;52.164;7.558;2023-02-01T12:31:46;5.90;99.90
17154;DHT22;8692;52.164;7.558;2023-02-01T12:34:50;5.90;99.90
17154;DHT22;8692;52.164;7.558;2023-02-01T12:37:35;5.90;99.90
17154;DHT22;8692;52.164;7.558;2023-02-01T12:40:18;6.00;99.90
17154;DHT22;8692;52.164;7.558;2023-02-01T12:42:55;6.00;99.90
17154;DHT22;8692;52.164;7.558;2023-02-01T12:45:30;6.00;99.90
17154;DHT22;8692;52.164;7.558;2023-02-01T12:48:08;6.00;99.90
17154;DHT22;8692;52.164;7.558;2023-02-01T12:50:48;6.10;99.90
17154;DHT22;8692;52.164;7.558;2023-02-01T12:53:21;6.10;99.90
17154;DHT22;8692;52.164;7.558;2023-02-01T12:55:54;6.10;99.90
17154;DHT22;8692;52.164;7.558;2023-02-01T12:58:30;6.10;99.90
17154;DHT22;8692;52.164;7.558;2023-02-01T13:01:06;6.10;99.90
17154;DHT22;8692;52.164;7.558;2023-02-01T13:03:39;6.10;99.90
17154;DHT22;8692;52.164;7.558;2023-02-01T13:06:15;6.10;99.90
17154;DHT22;8692;52.164;7.558;2023-02-01T13:08:52;6.10;99.90
17154;DHT22;8692;52.164;7.558;2023-02-01T13:11:26;6.20;99.90
17154;DHT22;8692;52.164;7.558;2023-02-01T13:14:01;6.20;99.90
17154;DHT22;8692;52.164;7.558;2023-02-01T13:16:34;6.30;99.90
17154;DHT22;8692;52.164;7.558;2023-02-01T13:19:12;6.30;99.90
17154;DHT22;8692;52.164;7.558;2023-02-01T13:21:48;6.30;99.90
17154;DHT22;8692;52.164;7.558;2023-02-01T13:24:32;6.30;99.90
17154;DHT22;8692;52.164;7.558;2023-02-01T13:27:01;6.30;99.90
17154;DHT22;8692;52.164;7.558;2023-02-01T13:29:30;6.30;99.90
17154;DHT22;8692;52.164;7.558;2023-02-01T13:32:22;6.30;99.90
17154;DHT22;8692;52.164;7.558;2023-02-01T13:38:22;6.20;99.90
17154;DHT22;8692;52.164;7.558;2023-02-01T13:41:09;6.20;99.90
17154;DHT22;8692;52.164;7.558;2023-02-01T13:43:47;6.30;99.90
17154;DHT22;8692;52.164;7.558;2023-02-01T13:46:17;6.30;99.90
17154;DHT22;8692;52.164;7.558;2023-02-01T13:48:50;6.30;99.90
17154;DHT22;8692;52.164;7.558;2023-02-01T13:51:33;6.30;99.90
17154;DHT22;8692;52.164;7.558;2023-02-01T13:54:25;6.30;99.90
17154;DHT22;8692;52.164;7.558;2023-02-01T13:56:56;6.30;99.90
17154;DHT22;8692;52.164;7.558;2023-02-01T13:59:49;6.30;99.90
17154;DHT22;8692;52.164;7.558;2023-02-01T14:02:48;6.30;99.90
17154;DHT22;8692;52.164;7.558;2023-02-01T14:08:39;6.30;99.90
17154;DHT22;8692;52.164;7.558;2023-02-01T14:11:35;6.20;99.90
17154;DHT22;8692;52.164;7.558;2023-02-01T14:17:34;6.10;99.90
17154;DHT22;8692;52.164;7.558;2023-02-01T14:23:15;5.80;99.90
17154;DHT22;8692;52.164;7.558;2023-02-01T14:26:01;5.70;99.90
17154;DHT22;8692;52.164;7.558;2023-02-01T14:28:30;5.60;99.90
17154;DHT22;8692;52.164;7.558;2023-02-01T14:30:58;5.50;99.90
17154;DHT22;8692;52.164;7.558;2023-02-01T14:33:27;5.50;99.90
17154;DHT22;8692;52.164;7.558;2023-02-01T14:36:02;5.50;99.90
17154;DHT22;8692;52.164;7.558;2023-02-01T14:38:31;5.50;99.90
17154;DHT22;8692;52.164;7.558;2023-02-01T14:44:24;5.50;99.90
17154;DHT22;8692;52.164;7.558;2023-02-01T14:50:27;5.70;99.90
17154;DHT22;8692;52.164;7.558;2023-02-01T14:53:06;5.70;99.90
17154;DHT22;8692;52.164;7.558;2023-02-01T14:55:42;5.80;99.90
17154;DHT22;8692;52.164;7.558;2023-02-01T14:58:19;5.90;99.90
17154;DHT22;8692;52.164;7.558;2023-02-01T15:00:51;5.90;99.90
17154;DHT22;8692;52.164;7.558;2023-02-01T15:03:33;6.00;99.90
17154;DHT22;8692;52.164;7.558;2023-02-01T15:06:13;6.00;99.90
17154;DHT22;8692;52.164;7.558;2023-02-01T15:08:45;6.00;99.90
17154;DHT22;8692;52.164;7.558;2023-02-01T15:11:15;6.00;99.90
17154;DHT22;8692;52.164;7.558;2023-02-01T15:13:50;6.10;99.90
17154;DHT22;8692;52.164;7.558;2023-02-01T15:16:22;6.10;99.90
17154;DHT22;8692;52.164;7.558;2023-02-01T15:18:57;6.10;99.90
17154;DHT22;8692;52.164;7.558;2023-02-01T15:21:44;6.10;99.90
17154;DHT22;8692;52.164;7.558;2023-02-01T15:24:20;6.10;99.90
17154;DHT22;8692;52.164;7.558;2023-02-01T15:26:52;6.10;99.90
17154;DHT22;8692;52.164;7.558;2023-02-01T15:29:25;6.10;99.90
17154;DHT22;8692;52.164;7.558;2023-02-01T15:31:56;6.20;99.90
17154;DHT22;8692;52.164;7.558;2023-02-01T15:34:44;6.10;99.90
17154;DHT22;8692;52.164;7.558;2023-02-01T15:37:16;6.20;99.90
17154;DHT22;8692;52.164;7.558;2023-02-01T15:40:05;6.20;99.90
17154;DHT22;8692;52.164;7.558;2023-02-01T15:42:40;6.10;99.90
17154;DHT22;8692;52.164;7.558;2023-02-01T15:45:18;6.20;99.90
17154;DHT22;8692;52.164;7.558;2023-02-01T15:47:47;6.20;99.90
17154;DHT22;8692;52.164;7.558;2023-02-01T15:50:17;6.20;99.90
17154;DHT22;8692;52.164;7.558;2023-02-01T15:52:52;6.10;99.90
17154;DHT22;8692;52.164;7.558;2023-02-01T15:55:31;6.10;99.90
17154;DHT22;8692;52.164;7.558;2023-02-01T15:58:05;6.10;99.90
17154;DHT22;8692;52.164;7.558;2023-02-01T16:00:43;6.10;99.90
17154;DHT22;8692;52.164;7.558;2023-02-01T16:03:27;6.10;99.90
17154;DHT22;8692;52.164;7.558;2023-02-01T16:05:57;6.10;99.90
17154;DHT22;8692;52.164;7.558;2023-02-01T16:08:27;6.10;99.90
17154;DHT22;8692;52.164;7.558;2023-02-01T16:11:01;6.20;99.90
17154;DHT22;8692;52.164;7.558;2023-02-01T16:13:29;6.10;99.90
17154;DHT22;8692;52.164;7.558;2023-02-01T16:15:59;6.10;99.90
17154;DHT22;8692;52.164;7.558;2023-02-01T16:18:27;6.10;99.90
17154;DHT22;8692;52.164;7.558;2023-02-01T16:20:57;6.10;99.90
17154;DHT22;8692;52.164;7.558;2023-02-01T16:23:25;6.10;99.90
17154;DHT22;8692;52.164;7.558;2023-02-01T16:25:58;6.10;99.90
17154;DHT22;8692;52.164;7.558;2023-02-01T16:28:26;6.10;99.90
17154;DHT22;8692;52.164;7.558;2023-02-01T16:30:54;6.10;99.90
17154;DHT22;8692;52.164;7.558;2023-02-01T16:33:24;6.00;99.90
17154;DHT22;8692;52.164;7.558;2023-02-01T16:35:56;6.00;99.90
17154;DHT22;8692;52.164;7.558;2023-02-01T16:38:31;6.00;99.90
17154;DHT22;8692;52.164;7.558;2023-02-01T16:40:59;6.00;99.90
17154;DHT22;8692;52.164;7.558;2023-02-01T16:43:29;6.00;99.90
17154;DHT22;8692;52.164;7.558;2023-02-01T16:46:00;6.00;99.90
17154;DHT22;8692;52.164;7.558;2023-02-01T16:48:34;5.90;99.90
17154;DHT22;8692;52.164;7.558;2023-02-01T16:51:08;5.90;99.90
17154;DHT22;8692;52.164;7.558;2023-02-01T16:53:37;5.90;99.90
17154;DHT22;8692;52.164;7.558;2023-02-01T16:56:24;6.00;99.90
17154;DHT22;8692;52.164;7.558;2023-02-01T16:58:58;6.00;99.90
17154;DHT22;8692;52.164;7.558;2023-02-01T17:01:28;6.00;99.90
17154;DHT22;8692;52.164;7.558;2023-02-01T17:03:57;6.00;99.90
17154;DHT22;8692;52.164;7.558;2023-02-01T17:06:26;6.00;99.90
17154;DHT22;8692;52.164;7.558;2023-02-01T17:08:57;6.00;99.90